Time;durP1;ratioP1;P1;durP2;ratioP2;P2;SDS_P1;SDS_P2;PMS_P1;PMS_P2;Temp;Humidity;BMP_temperature;BMP_pressure;BME280_temperature;BME280_humidity;BME280_pressure;Samples;Min_cycle;Max_cycle;Signal;HPM_P1;HPM_P2
2021/07/01 00:00:59;;;;;;;11.05;4.15;;;;;;;27.97;43.18;98906.55;1826062;77;22744;-42
2021/07/01 00:03:26;;;;;;;5.42;4.45;;;;;;;27.97;43.09;98909.26;1827467;77;21035;-42
2021/07/01 00:05:53;;;;;;;7.62;4.60;;;;;;;27.96;43.10;98904.37;1827422;77;21613;-42
2021/07/01 00:08:20;;;;;;;4.75;4.28;;;;;;;27.96;43.12;98903.02;1829158;77;21082;-43
2021/07/01 00:10:47;;;;;;;5.05;4.20;;;;;;;27.96;43.05;98903.02;1825342;77;21024;-42
2021/07/01 00:13:14;;;;;;;4.03;3.72;;;;;;;27.97;43.00;98897.09;1828045;77;21004;-42
2021/07/01 00:15:43;;;;;;;4.37;3.98;;;;;;;27.96;43.02;98883.26;1791740;77;37828;-42
2021/07/01 00:18:10;;;;;;;8.20;3.80;;;;;;;27.95;42.98;98876.16;1826356;77;21117;-42
2021/07/01 00:20:37;;;;;;;5.62;4.60;;;;;;;27.95;43.01;98876.16;1797656;77;21465;-42
2021/07/01 00:23:04;;;;;;;6.87;4.55;;;;;;;27.94;43.07;98869.05;1795151;77;21039;-42
2021/07/01 00:25:31;;;;;;;5.47;4.45;;;;;;;27.93;43.14;98856.58;1827128;77;21030;-42
2021/07/01 00:27:59;;;;;;;5.10;3.72;;;;;;;27.93;43.25;98853.88;1828670;77;21053;-42
2021/07/01 00:30:26;;;;;;;4.22;3.83;;;;;;;27.92;43.21;98854.36;1826086;77;21656;-42
2021/07/01 00:32:53;;;;;;;5.30;4.12;;;;;;;27.91;43.13;98850.48;1826366;77;21078;-42
2021/07/01 00:35:20;;;;;;;6.15;4.40;;;;;;;27.91;43.09;98845.08;1826050;77;21652;-42
2021/07/01 00:37:47;;;;;;;4.83;4.33;;;;;;;27.90;43.09;98836.63;1819825;77;20984;-41
2021/07/01 00:40:15;;;;;;;4.40;4.00;;;;;;;27.89;43.07;98834.45;1817903;77;21030;-42
2021/07/01 00:42:42;;;;;;;5.17;3.90;;;;;;;27.90;43.08;98828.52;1805035;77;21097;-42
2021/07/01 00:45:09;;;;;;;5.22;4.20;;;;;;;27.89;43.10;98823.62;1771803;78;21019;-42
2021/07/01 00:47:36;;;;;;;4.62;4.17;;;;;;;27.88;43.16;98821.94;1802838;78;20987;-42
2021/07/01 00:50:07;;;;;;;5.28;4.30;;;;;;;27.88;43.28;98818.41;1772105;78;22041;-42
2021/07/01 00:52:35;;;;;;;4.87;4.30;;;;;;;27.88;43.22;98813.00;1804676;78;22292;-42
2021/07/01 00:55:06;;;;;;;4.35;3.92;;;;;;;27.86;43.29;98810.99;1807527;77;21133;-42
2021/07/01 00:57:34;;;;;;;5.87;3.92;;;;;;;27.86;43.35;98808.28;1804496;78;21053;-42
2021/07/01 01:00:06;;;;;;;5.12;3.98;;;;;;;27.85;43.35;98810.65;1808181;78;21002;-42
2021/07/01 01:02:32;;;;;;;4.45;4.05;;;;;;;27.85;43.35;98812.00;1798783;78;20995;-42
2021/07/01 01:05:00;;;;;;;6.47;4.22;;;;;;;27.84;43.40;98803.55;1807211;78;21544;-42
2021/07/01 01:07:27;;;;;;;5.83;4.17;;;;;;;27.84;43.42;98811.66;1799460;77;21843;-42
2021/07/01 01:09:53;;;;;;;5.05;4.55;;;;;;;27.83;43.44;98815.41;1804013;77;21030;-42
2021/07/01 01:12:20;;;;;;;6.45;4.03;;;;;;;27.82;43.44;98815.89;1807120;77;21053;-42
2021/07/01 01:14:48;;;;;;;4.67;4.30;;;;;;;27.82;43.39;98821.82;1770354;77;20983;-42
2021/07/01 01:17:15;;;;;;;4.40;4.00;;;;;;;27.83;43.39;98818.11;1804632;78;21458;-42
2021/07/01 01:19:44;;;;;;;6.10;4.00;;;;;;;27.82;43.37;98808.30;1772778;78;21134;-42
2021/07/01 01:22:11;;;;;;;4.12;3.70;;;;;;;27.82;43.36;98814.55;1800534;77;20971;-41
2021/07/01 01:24:39;;;;;;;5.67;3.60;;;;;;;27.83;43.36;98814.05;1804464;78;21003;-41
2021/07/01 01:27:05;;;;;;;4.45;4.05;;;;;;;27.83;43.35;98812.70;1768596;78;20999;-42
2021/07/01 01:30:39;;;;;;;8.23;3.98;;;;;;;27.82;43.36;98805.08;1795477;78;21034;-42
2021/07/01 01:33:07;;;;;;;5.28;4.22;;;;;;;27.80;43.37;98801.20;1777442;78;21139;-42
2021/07/01 01:35:34;;;;;;;4.47;4.08;;;;;;;27.80;43.38;98800.38;1760808;79;22132;-42
2021/07/01 01:38:01;;;;;;;6.85;4.28;;;;;;;27.79;43.44;98788.73;1784731;79;21098;-42
2021/07/01 01:40:28;;;;;;;4.40;4.00;;;;;;;27.78;43.53;98778.93;1780039;79;21502;-41
2021/07/01 01:42:56;;;;;;;4.33;3.92;;;;;;;27.78;43.58;98774.87;1823570;77;20995;-42
2021/07/01 01:45:23;;;;;;;4.90;4.40;;;;;;;27.77;43.69;98769.16;1773260;78;21108;-42
2021/07/01 01:47:50;;;;;;;4.12;3.80;;;;;;;27.76;43.80;98764.77;1805267;78;21037;-40
2021/07/01 01:50:22;;;;;;;7.85;5.85;;;;;;;27.76;43.89;98764.77;1769985;78;21085;-41
2021/07/01 01:52:49;;;;;;;14.00;10.15;;;;;;;27.79;44.03;98759.52;1801230;78;21033;-39
2021/07/01 01:55:17;;;;;;;16.82;9.63;;;;;;;27.80;44.25;98755.25;1804687;78;21072;-39
2021/07/01 01:57:47;;;;;;;12.35;8.10;;;;;;;27.80;44.48;98753.91;1804751;77;23189;-39
2021/07/01 02:00:17;;;;;;;14.83;7.72;;;;;;;27.77;44.71;98748.89;1804512;77;21567;-39
2021/07/01 02:02:57;;;;;;;13.48;7.05;;;;;;;27.74;44.87;98752.44;1769659;78;21038;-39
2021/07/01 02:05:30;;;;;;;10.28;7.05;;;;;;;27.72;44.96;98744.55;1776574;77;20986;-39
2021/07/01 02:07:57;;;;;;;8.60;5.50;;;;;;;27.70;44.93;98738.45;1768551;78;21596;-39
2021/07/01 02:10:27;;;;;;;9.25;5.62;;;;;;;27.70;44.92;98724.94;1804742;78;21473;-39
2021/07/01 02:12:54;;;;;;;7.20;5.37;;;;;;;27.71;44.98;98729.86;1800805;77;21009;-38
2021/07/01 02:15:24;;;;;;;6.53;5.10;;;;;;;27.68;45.05;98721.59;1803273;77;20986;-39
2021/07/01 02:17:54;;;;;;;6.60;5.15;;;;;;;27.69;45.11;98723.28;1754435;78;21854;-39
2021/07/01 02:20:24;;;;;;;11.35;5.62;;;;;;;27.68;45.19;98718.89;1771140;78;21046;-38
2021/07/01 02:22:52;;;;;;;6.45;4.75;;;;;;;27.67;45.25;98718.58;1796579;78;21025;-38
2021/07/01 02:25:20;;;;;;;6.72;4.90;;;;;;;27.65;45.32;98711.14;1792906;77;21041;-39
2021/07/01 02:27:49;;;;;;;5.85;4.42;;;;;;;27.66;45.38;98712.00;1769733;78;21033;-39
2021/07/01 02:30:18;;;;;;;7.35;4.83;;;;;;;27.65;45.37;98709.78;1803103;78;21066;-39
2021/07/01 02:32:45;;;;;;;5.55;4.67;;;;;;;27.66;45.37;98707.42;1767429;78;21259;-38
2021/07/01 02:35:13;;;;;;;5.00;4.50;;;;;;;27.66;45.36;98704.72;1768776;78;21177;-38
2021/07/01 02:37:57;;;;;;;6.53;4.70;;;;;;;27.70;45.35;98711.95;1809401;77;21105;-38
2021/07/01 02:40:26;;;;;;;7.42;4.45;;;;;;;27.72;45.32;98720.22;1808701;78;21088;-39
2021/07/01 02:42:55;;;;;;;6.45;4.58;;;;;;;27.76;45.25;98724.22;1809676;78;21565;-39
2021/07/01 02:45:24;;;;;;;6.65;4.55;;;;;;;27.78;45.19;98724.87;1778554;78;21057;-38
2021/07/01 02:47:53;;;;;;;5.90;4.70;;;;;;;27.82;45.06;98738.86;1808002;78;21026;-38
2021/07/01 02:50:20;;;;;;;6.53;4.65;;;;;;;27.84;45.01;98741.38;1795456;78;21061;-38
2021/07/01 02:52:47;;;;;;;5.50;4.40;;;;;;;27.86;44.90;98746.11;1772190;78;21007;-38
2021/07/01 02:55:15;;;;;;;4.83;4.33;;;;;;;27.88;44.83;98748.95;1795510;78;21035;-38
2021/07/01 02:57:44;;;;;;;9.00;4.35;;;;;;;27.91;44.67;98755.86;1794984;78;21583;-43
2021/07/01 03:00:14;;;;;;;7.00;4.70;;;;;;;27.93;44.57;98763.30;1795866;78;21081;-38
2021/07/01 03:02:42;;;;;;;6.83;4.40;;;;;;;27.95;44.57;98766.66;1792852;78;21067;-39
2021/07/01 03:05:14;;;;;;;4.55;4.12;;;;;;;27.97;44.54;98780.34;1793385;78;21042;-39
2021/07/01 03:07:41;;;;;;;5.35;4.50;;;;;;;28.02;44.43;98782.98;1793699;78;21066;-39
2021/07/01 03:10:10;;;;;;;8.33;5.03;;;;;;;28.05;44.36;98788.86;1770106;78;21011;-38
2021/07/01 03:12:38;;;;;;;4.80;4.40;;;;;;;28.14;44.20;98785.56;1795466;78;21664;-39
2021/07/01 03:15:09;;;;;;;4.65;4.08;;;;;;;28.27;43.92;98797.11;1795053;78;21117;-39
2021/07/01 03:17:38;;;;;;;4.65;4.22;;;;;;;28.40;43.70;98804.08;1794744;78;21085;-37
2021/07/01 03:20:06;;;;;;;4.70;4.15;;;;;;;28.50;43.40;98810.05;1794735;78;21046;-38
2021/07/01 03:22:35;;;;;;;4.67;4.10;;;;;;;28.62;43.17;98823.16;1741268;78;21011;-38
2021/07/01 03:25:03;;;;;;;5.55;4.03;;;;;;;28.66;43.04;98833.40;1795315;78;21151;-38
2021/07/01 03:27:31;;;;;;;4.35;3.95;;;;;;;28.66;43.00;98843.39;1796066;78;21277;-38
2021/07/01 03:29:58;;;;;;;5.20;4.28;;;;;;;28.62;43.07;98838.05;1796118;78;21026;-38
2021/07/01 03:32:25;;;;;;;4.12;3.83;;;;;;;28.59;43.19;98847.88;1793419;78;21010;-38
2021/07/01 03:34:54;;;;;;;5.85;4.42;;;;;;;28.56;43.30;98859.08;1768520;78;20950;-38
2021/07/01 03:37:22;;;;;;;4.53;4.03;;;;;;;28.50;43.45;98866.88;1794859;78;21132;-38
2021/07/01 03:40:08;;;;;;;6.70;4.17;;;;;;;28.47;43.69;98867.77;1759440;78;20927;-39
2021/07/01 03:42:35;;;;;;;4.60;4.20;;;;;;;28.41;43.87;98868.48;1798850;78;20983;-38
2021/07/01 03:45:05;;;;;;;4.42;4.03;;;;;;;28.37;43.99;98877.48;1774292;79;21057;-39
2021/07/01 03:47:33;;;;;;;4.50;4.03;;;;;;;28.33;44.18;98878.89;1804380;78;21038;-39
2021/07/01 03:50:00;;;;;;;5.37;4.45;;;;;;;28.30;44.29;98869.78;1775170;79;21646;-39
2021/07/01 03:52:45;;;;;;;5.33;4.33;;;;;;;28.27;44.30;98871.50;1775839;79;21580;-38
2021/07/01 03:55:12;;;;;;;4.40;4.05;;;;;;;28.25;44.34;98876.26;1768315;79;21099;-38
2021/07/01 03:57:39;;;;;;;6.97;4.37;;;;;;;28.23;44.36;98871.03;1768899;79;21046;-38
2021/07/01 04:00:08;;;;;;;4.65;4.17;;;;;;;28.23;44.41;98877.80;1740709;79;21073;-38
2021/07/01 04:02:46;;;;;;;5.25;3.90;;;;;;;28.20;44.45;98875.45;1793137;78;23272;-39
2021/07/01 04:05:14;;;;;;;6.17;4.67;;;;;;;28.19;44.48;98863.45;1735843;79;21013;-38
2021/07/01 04:07:42;;;;;;;7.15;4.85;;;;;;;28.17;44.53;98863.11;1796854;78;21054;-38
2021/07/01 04:10:15;;;;;;;4.85;4.42;;;;;;;28.16;44.55;98864.16;1741787;79;21109;-38
2021/07/01 04:12:46;;;;;;;5.03;4.53;;;;;;;28.15;44.60;98870.58;1781839;78;21030;-38
2021/07/01 04:15:32;;;;;;;5.60;4.97;;;;;;;28.13;44.67;98879.39;1793171;78;21525;-39
2021/07/01 04:18:19;;;;;;;8.35;4.67;;;;;;;28.12;44.71;98878.22;1759362;79;21102;-39
2021/07/01 04:21:05;;;;;;;8.75;4.62;;;;;;;28.10;44.79;98861.34;1806979;78;21035;-38
2021/07/01 04:23:50;;;;;;;6.97;4.60;;;;;;;28.08;44.85;98869.63;1805350;78;22315;-38
2021/07/01 04:26:29;;;;;;;8.33;4.42;;;;;;;28.06;44.89;98871.69;1804604;78;21292;-38
2021/07/01 04:28:57;;;;;;;8.13;4.67;;;;;;;28.06;44.90;98868.12;1803806;78;21172;-38
2021/07/01 04:31:25;;;;;;;8.53;4.83;;;;;;;28.04;44.97;98861.56;1803751;78;21085;-38
2021/07/01 04:33:53;;;;;;;7.17;4.85;;;;;;;28.04;45.03;98861.56;1801353;78;20987;-38
2021/07/01 04:36:20;;;;;;;6.10;4.92;;;;;;;28.02;45.06;98858.17;1799882;78;21847;-38
2021/07/01 04:38:47;;;;;;;5.10;4.60;;;;;;;28.02;45.11;98860.88;1792638;78;21027;-38
2021/07/01 04:41:19;;;;;;;5.35;4.22;;;;;;;28.01;45.11;98863.28;1791544;78;21233;-38
2021/07/01 04:43:45;;;;;;;6.37;4.28;;;;;;;28.02;45.12;98878.98;1794679;78;22001;-38
2021/07/01 04:46:12;;;;;;;7.47;4.42;;;;;;;28.01;45.08;98882.20;1767158;78;21046;-38
2021/07/01 04:48:41;;;;;;;5.90;4.55;;;;;;;28.02;45.04;98886.57;1772938;78;21046;-42
2021/07/01 04:51:10;;;;;;;12.23;5.00;;;;;;;28.02;45.25;98896.03;1779259;78;21038;-41
2021/07/01 04:53:55;;;;;;;8.20;5.22;;;;;;;27.96;45.69;98894.08;1790123;78;21816;-41
2021/07/01 04:56:45;;;;;;;7.72;4.58;;;;;;;27.86;46.11;98906.96;1730227;81;21083;-42
2021/07/01 04:59:20;;;;;;;7.08;4.30;;;;;;;27.77;46.52;98902.95;1708739;82;21118;-39
2021/07/01 05:01:49;;;;;;;8.10;4.78;;;;;;;27.64;47.05;98902.70;1731564;80;20978;-40
2021/07/01 05:04:22;;;;;;;7.45;5.05;;;;;;;27.55;47.49;98900.53;1771784;79;20966;-39
2021/07/01 05:06:49;;;;;;;7.25;5.05;;;;;;;27.45;47.85;98902.61;1752581;80;21633;-39
2021/07/01 05:09:16;;;;;;;12.60;8.63;;;;;;;27.37;48.17;98906.22;1763184;79;21787;-40
2021/07/01 05:11:44;;;;;;;45.98;27.17;;;;;;;27.30;48.50;98907.91;1757405;79;21011;-40
2021/07/01 05:14:11;;;;;;;52.40;32.15;;;;;;;27.22;48.79;98905.25;1756772;80;21046;-42
2021/07/01 05:16:40;;;;;;;42.13;24.45;;;;;;;27.16;49.00;98914.04;1772179;78;21443;-42
2021/07/01 05:19:08;;;;;;;25.88;15.63;;;;;;;27.11;49.25;98917.77;1777705;79;21039;-41
2021/07/01 05:21:54;;;;;;;26.10;11.48;;;;;;;27.04;49.42;98914.41;1778039;79;21533;-40
2021/07/01 05:24:23;;;;;;;15.60;9.60;;;;;;;26.98;49.61;98913.77;1761241;79;21061;-41
2021/07/01 05:27:03;;;;;;;12.25;7.75;;;;;;;26.96;49.81;98913.59;1750906;78;21082;-41
2021/07/01 05:29:50;;;;;;;14.50;7.30;;;;;;;26.92;49.93;98913.63;1792859;79;21038;-39
2021/07/01 05:32:35;;;;;;;14.73;7.47;;;;;;;26.90;50.10;98916.49;1771649;79;21824;-40
2021/07/01 05:35:16;;;;;;;10.38;6.30;;;;;;;26.89;50.25;98913.45;1749373;79;21085;-42
2021/07/01 05:37:44;;;;;;;10.30;7.20;;;;;;;26.88;50.37;98911.75;1769542;79;21038;-39
2021/07/01 05:40:15;;;;;;;12.80;6.83;;;;;;;26.87;50.37;98923.58;1773388;79;20986;-42
2021/07/01 05:42:42;;;;;;;12.82;7.15;;;;;;;26.88;50.45;98919.84;1752361;80;20980;-41
2021/07/01 05:45:11;;;;;;;11.57;6.55;;;;;;;26.87;50.51;98912.78;1755368;80;21038;-41
2021/07/01 05:47:38;;;;;;;13.88;6.42;;;;;;;26.86;50.58;98917.34;1752038;81;20992;-40
2021/07/01 05:50:07;;;;;;;9.18;6.50;;;;;;;26.85;50.64;98921.57;1773243;79;21027;-41
2021/07/01 05:52:35;;;;;;;13.55;6.10;;;;;;;26.83;50.72;98919.52;1752859;81;21051;-42
2021/07/01 05:55:08;;;;;;;9.40;6.20;;;;;;;26.79;50.84;98924.43;1787736;79;21451;-41
2021/07/01 05:57:34;;;;;;;14.45;6.12;;;;;;;26.76;50.90;98921.23;1751449;80;21133;-41
2021/07/01 06:00:01;;;;;;;7.87;5.25;;;;;;;26.74;50.95;98926.80;1782742;79;21093;-41
2021/07/01 06:02:28;;;;;;;9.13;5.25;;;;;;;26.72;50.95;98929.36;1773204;79;21055;-40
2021/07/01 06:04:54;;;;;;;16.35;8.65;;;;;;;26.71;50.94;98939.80;1728477;81;21106;-40
2021/07/01 06:07:37;;;;;;;14.83;8.83;;;;;;;26.69;50.98;98935.41;1697959;83;21104;-40
2021/07/01 06:10:06;;;;;;;13.30;8.70;;;;;;;26.68;51.05;98928.34;1727399;80;22194;-42
2021/07/01 06:12:33;;;;;;;13.28;7.58;;;;;;;26.68;51.16;98925.64;1735465;80;21047;-41
2021/07/01 06:15:00;;;;;;;10.55;6.78;;;;;;;26.69;51.16;98927.31;1735179;80;21055;-45
2021/07/01 06:17:30;;;;;;;11.73;6.67;;;;;;;26.72;51.07;98917.21;1771349;79;21008;-43
2021/07/01 06:19:56;;;;;;;11.28;6.37;;;;;;;26.76;50.92;98919.37;1757934;79;21070;-43
2021/07/01 06:22:23;;;;;;;7.62;6.30;;;;;;;26.78;50.82;98920.06;1775973;79;21051;-42
2021/07/01 06:24:54;;;;;;;7.22;6.15;;;;;;;26.82;50.72;98915.99;1745525;80;21019;-41
2021/07/01 06:27:22;;;;;;;8.10;5.50;;;;;;;26.85;50.62;98910.77;1753614;79;21285;-42
2021/07/01 06:29:47;;;;;;;12.18;6.10;;;;;;;26.85;50.67;98914.82;1781055;79;21078;-42
2021/07/01 06:32:14;;;;;;;7.50;5.72;;;;;;;26.83;50.78;98917.69;1779259;79;21083;-43
2021/07/01 06:34:42;;;;;;;10.82;5.83;;;;;;;26.82;50.86;98915.99;1780422;79;21197;-42
2021/07/01 06:37:09;;;;;;;9.00;5.60;;;;;;;26.82;50.92;98919.20;1767973;79;21045;-43
2021/07/01 06:39:54;;;;;;;7.67;5.33;;;;;;;26.82;50.92;98921.39;1772750;79;21000;-41
2021/07/01 06:42:50;;;;;;;7.67;5.45;;;;;;;26.83;51.04;98918.17;1756934;81;21036;-46
2021/07/01 06:45:35;;;;;;;14.95;6.70;;;;;;;26.82;51.23;98921.91;1759836;79;21476;-42
2021/07/01 06:48:21;;;;;;;14.63;6.20;;;;;;;26.79;51.43;98920.90;1777606;79;21070;-44
2021/07/01 06:51:08;;;;;;;10.00;6.78;;;;;;;26.76;51.56;98921.23;1644264;85;21697;-46
2021/07/01 06:53:42;;;;;;;12.35;6.55;;;;;;;26.71;51.81;98919.05;1648358;82;21490;-40
2021/07/01 06:56:16;;;;;;;13.45;6.75;;;;;;;26.72;51.87;98918.56;1720973;77;21048;-40
2021/07/01 06:58:43;;;;;;;12.75;6.37;;;;;;;26.80;51.67;98913.98;1809898;78;21487;-40
2021/07/01 07:01:11;;;;;;;11.10;5.90;;;;;;;26.89;51.36;98910.75;1799972;78;21026;-40
2021/07/01 07:03:39;;;;;;;13.68;6.05;;;;;;;27.00;51.11;98913.57;1800750;77;21048;-39
2021/07/01 07:06:06;;;;;;;9.83;5.97;;;;;;;27.10;50.80;98910.67;1793862;77;21028;-41
2021/07/01 07:08:33;;;;;;;13.62;5.60;;;;;;;27.19;50.53;98898.84;1779736;78;21008;-41
2021/07/01 07:11:00;;;;;;;9.85;5.80;;;;;;;27.26;50.29;98899.81;1807789;78;20984;-40
2021/07/01 07:13:28;;;;;;;6.55;5.67;;;;;;;27.34;50.08;98903.86;1811211;77;21047;-41
2021/07/01 07:15:58;;;;;;;12.85;5.58;;;;;;;27.41;49.88;98904.83;1808130;77;20969;-43
2021/07/01 07:18:30;;;;;;;7.58;5.62;;;;;;;27.49;49.73;98909.86;1807675;78;20944;-41
2021/07/01 07:21:03;;;;;;;13.38;4.87;;;;;;;27.54;49.57;98902.09;1815665;77;21030;-43
2021/07/01 07:23:32;;;;;;;7.95;5.62;;;;;;;27.60;49.37;98896.81;1786720;77;21529;-42
2021/07/01 07:26:08;;;;;;;9.05;5.80;;;;;;;27.66;49.19;98896.59;1798140;78;21021;-40
2021/07/01 07:28:37;;;;;;;7.22;5.70;;;;;;;27.73;49.07;98897.56;1829046;78;20997;-42
2021/07/01 07:31:05;;;;;;;11.50;6.53;;;;;;;27.77;48.94;98890.80;1792544;78;21678;-42
2021/07/01 07:33:32;;;;;;;9.95;6.17;;;;;;;27.81;48.82;98888.56;1816349;78;20998;-41
2021/07/01 07:36:01;;;;;;;15.85;6.67;;;;;;;27.87;48.71;98887.00;1819950;77;21064;-44
2021/07/01 07:38:27;;;;;;;11.10;6.60;;;;;;;27.90;48.69;98886.64;1824290;77;21186;-40
2021/07/01 07:40:56;;;;;;;10.03;6.62;;;;;;;27.93;48.64;98888.50;1813130;77;21030;-39
2021/07/01 07:43:25;;;;;;;10.10;6.12;;;;;;;27.97;48.58;98893.90;1821016;78;21032;-43
2021/07/01 07:45:55;;;;;;;12.05;6.72;;;;;;;28.01;48.48;98888.96;1820685;78;21086;-43
2021/07/01 07:48:21;;;;;;;14.43;10.25;;;;;;;28.05;48.43;98884.86;1801112;78;21437;-40
2021/07/01 07:50:53;;;;;;;16.90;9.70;;;;;;;28.09;48.37;98882.14;1788055;78;21137;-41
2021/07/01 07:53:25;;;;;;;14.33;8.83;;;;;;;28.14;48.31;98878.38;1788681;79;21062;-39
2021/07/01 07:56:05;;;;;;;12.98;8.35;;;;;;;28.18;48.28;98868.03;1805481;77;21463;-40
2021/07/01 07:58:34;;;;;;;10.88;7.45;;;;;;;28.23;48.17;98864.79;1818890;77;22297;-42
2021/07/01 08:01:01;;;;;;;10.93;7.78;;;;;;;28.28;48.10;98862.38;1805664;78;21632;-43
2021/07/01 08:03:33;;;;;;;8.93;7.03;;;;;;;28.33;48.04;98865.37;1818305;77;22128;-41
2021/07/01 08:06:01;;;;;;;14.33;6.70;;;;;;;28.39;48.01;98867.31;1809342;77;21114;-41
2021/07/01 08:08:31;;;;;;;13.45;6.65;;;;;;;28.44;47.84;98863.55;1839276;77;21011;-39
2021/07/01 08:11:04;;;;;;;7.78;6.20;;;;;;;28.50;47.67;98862.81;1784228;78;21416;-42
2021/07/01 08:13:32;;;;;;;12.82;6.17;;;;;;;28.56;47.50;98867.19;1813653;78;21577;-40
2021/07/01 08:16:00;;;;;;;10.50;5.70;;;;;;;28.62;47.40;98869.17;1774499;79;21057;-41
2021/07/01 08:18:41;;;;;;;8.90;6.30;;;;;;;28.68;47.21;98867.05;1786338;78;21035;-43
2021/07/01 08:21:13;;;;;;;11.33;5.45;;;;;;;28.75;47.02;98869.36;1793582;77;21011;-41
2021/07/01 08:23:41;;;;;;;10.15;5.37;;;;;;;28.81;46.87;98862.35;1787198;77;21045;-42
2021/07/01 08:26:09;;;;;;;6.33;4.50;;;;;;;28.86;46.76;98862.11;1805975;78;21516;-41
2021/07/01 08:28:36;;;;;;;10.05;5.28;;;;;;;28.91;46.55;98863.73;1790507;78;21054;-43
2021/07/01 08:31:09;;;;;;;7.47;4.70;;;;;;;28.96;46.38;98858.29;1782124;79;20968;-40
2021/07/01 08:33:39;;;;;;;11.83;8.13;;;;;;;29.03;46.18;98857.86;1826458;77;20995;-41
2021/07/01 08:36:08;;;;;;;15.00;6.83;;;;;;;29.07;46.02;98853.23;1784245;77;21031;-42
2021/07/01 08:38:36;;;;;;;12.20;7.25;;;;;;;29.13;45.93;98858.92;1780213;79;21068;-40
2021/07/01 08:41:20;;;;;;;9.85;5.95;;;;;;;29.16;45.79;98849.90;1818036;78;22248;-41
2021/07/01 08:43:57;;;;;;;7.25;5.60;;;;;;;29.20;45.55;98851.25;1806165;77;21511;-43
2021/07/01 08:46:46;;;;;;;8.03;5.92;;;;;;;29.24;45.33;98853.89;1785656;77;21153;-41
2021/07/01 08:49:13;;;;;;;7.58;5.33;;;;;;;29.27;45.11;98856.22;1767195;78;21018;-41
2021/07/01 08:51:45;;;;;;;5.25;4.35;;;;;;;29.33;44.95;98852.42;1775662;80;21059;-43
2021/07/01 08:54:26;;;;;;;8.73;5.12;;;;;;;29.35;44.78;98852.55;1778468;77;21116;-41
2021/07/01 08:56:54;;;;;;;5.72;4.85;;;;;;;29.39;44.55;98855.22;1784158;78;21057;-41
2021/07/01 08:59:24;;;;;;;4.97;4.35;;;;;;;29.43;44.38;98848.89;1785434;78;21022;-40
2021/07/01 09:02:00;;;;;;;9.43;3.92;;;;;;;29.45;44.20;98848.18;1789868;77;21082;-45
2021/07/01 09:04:35;;;;;;;5.90;3.83;;;;;;;29.49;43.99;98854.91;1761376;78;21037;-39
2021/07/01 09:07:04;;;;;;;5.62;3.35;;;;;;;29.53;43.80;98850.77;1755627;77;21796;-43
2021/07/01 09:09:36;;;;;;;5.53;3.70;;;;;;;29.56;43.63;98855.81;1777230;79;21028;-41
2021/07/01 09:12:08;;;;;;;6.85;3.98;;;;;;;29.60;43.52;98853.56;1779174;77;20985;-41
2021/07/01 09:14:38;;;;;;;6.05;3.50;;;;;;;29.63;43.34;98852.65;1769605;78;21038;-43
2021/07/01 09:17:10;;;;;;;5.45;3.55;;;;;;;29.66;43.23;98856.86;1755528;79;22288;-41
2021/07/01 09:19:39;;;;;;;4.95;3.05;;;;;;;29.69;43.11;98857.84;1787631;77;21109;-44
2021/07/01 09:22:11;;;;;;;4.17;3.00;;;;;;;29.73;42.93;98856.94;1774268;77;21042;-42
2021/07/01 09:24:36;;;;;;;5.78;3.20;;;;;;;29.75;42.84;98854.34;1771449;79;21147;-40
2021/07/01 09:27:11;;;;;;;6.50;3.22;;;;;;;29.78;42.77;98840.95;1771843;78;21201;-42
2021/07/01 09:29:43;;;;;;;;;;;;;;;29.81;42.58;98850.89;1777746;78;21919;-39
2021/07/01 09:32:10;;;;;;;4.55;3.60;;;;;;;29.85;42.48;98843.20;1775662;79;21106;-42
2021/07/01 09:34:39;;;;;;;7.92;3.15;;;;;;;29.90;42.44;98848.88;1775585;79;20969;-40
2021/07/01 09:37:07;;;;;;;7.55;3.55;;;;;;;29.95;42.42;98851.84;1776452;79;20969;-41
2021/07/01 09:39:35;;;;;;;15.18;3.42;;;;;;;30.01;42.26;98847.02;1776832;78;21046;-42
2021/07/01 09:42:05;;;;;;;3.10;2.80;;;;;;;30.07;42.11;98832.34;1776001;78;20899;-41
2021/07/01 09:44:33;;;;;;;6.62;3.10;;;;;;;30.13;41.97;98834.28;1776004;78;21189;-40
2021/07/01 09:47:04;;;;;;;6.03;2.77;;;;;;;30.17;41.50;98836.38;1776835;77;20983;-42
2021/07/01 09:49:40;;;;;;;5.87;2.85;;;;;;;30.16;41.06;98835.22;1776179;79;21505;-48
2021/07/01 09:52:13;;;;;;;3.70;2.70;;;;;;;30.12;40.99;98832.59;1776263;79;20997;-49
2021/07/01 09:54:49;;;;;;;5.45;3.47;;;;;;;30.07;41.07;98829.63;1776228;79;22022;-49
2021/07/01 09:57:30;;;;;;;5.50;3.60;;;;;;;30.04;41.12;98828.13;1753101;77;21784;-50
2021/07/01 10:00:00;;;;;;;8.30;3.17;;;;;;;30.01;41.14;98819.89;1752013;79;21004;-49
2021/07/01 10:02:26;;;;;;;6.83;3.30;;;;;;;30.01;41.15;98817.17;1775945;78;21002;-49
2021/07/01 10:04:53;;;;;;;7.30;3.27;;;;;;;30.00;41.15;98820.91;1751488;78;21986;-51
2021/07/01 10:07:21;;;;;;;5.00;3.02;;;;;;;29.99;41.13;98815.18;1776112;78;21023;-48
2021/07/01 10:09:57;;;;;;;5.50;3.15;;;;;;;29.98;41.14;98818.92;1776059;78;21125;-48
2021/07/01 10:12:27;;;;;;;9.15;2.95;;;;;;;29.96;41.11;98807.44;1776148;77;20988;-51
2021/07/01 10:14:58;;;;;;;6.25;3.00;;;;;;;29.95;41.14;98805.74;1776318;78;20984;-49
2021/07/01 10:17:25;;;;;;;6.22;3.40;;;;;;;29.94;41.18;98806.80;1776793;77;20992;-50
2021/07/01 10:20:08;;;;;;;5.08;2.80;;;;;;;29.94;41.19;98798.66;1776747;78;21096;-50
2021/07/01 10:22:41;;;;;;;3.60;3.08;;;;;;;29.94;41.22;98798.66;1748182;78;21049;-50
2021/07/01 10:25:09;;;;;;;4.65;2.83;;;;;;;29.95;41.19;98799.48;1781919;77;21077;-55
2021/07/01 10:27:41;;;;;;;6.72;3.08;;;;;;;29.95;41.22;98790.00;1784913;78;21146;-52
2021/07/01 10:30:28;;;;;;;8.63;3.67;;;;;;;29.91;41.11;98791.41;1772013;78;21033;-51
2021/07/01 10:32:54;;;;;;;9.03;3.87;;;;;;;29.80;41.05;98794.14;1766666;78;20991;-50
2021/07/01 10:35:26;;;;;;;6.75;3.87;;;;;;;29.65;41.21;98788.23;1793493;78;21128;-51
2021/07/01 10:38:08;;;;;;;8.90;4.17;;;;;;;29.56;41.43;98793.47;1777706;79;21060;-52
2021/07/01 10:40:47;;;;;;;8.93;4.37;;;;;;;29.48;41.64;98799.02;1788092;77;21121;-47
2021/07/01 10:43:17;;;;;;;8.65;4.65;;;;;;;29.42;41.80;98790.30;1805562;77;21006;-51
2021/07/01 10:45:58;;;;;;;6.83;4.37;;;;;;;29.35;41.95;98790.75;1787259;78;21565;-51
2021/07/01 10:48:25;;;;;;;4.78;4.25;;;;;;;29.30;42.12;98790.48;1781952;78;21080;-50
2021/07/01 10:50:54;;;;;;;5.08;4.22;;;;;;;29.25;42.28;98795.98;1800160;78;21089;-53
2021/07/01 10:53:39;;;;;;;7.15;3.58;;;;;;;29.20;42.43;98788.94;1783563;78;21494;-53
2021/07/01 10:56:18;;;;;;;9.65;3.60;;;;;;;29.18;42.49;98786.09;1791091;78;21025;-49
2021/07/01 10:58:45;;;;;;;5.35;3.40;;;;;;;29.13;42.52;98786.62;1784870;78;20967;-51
2021/07/01 11:01:25;;;;;;;4.85;4.05;;;;;;;29.07;42.51;98780.63;1756307;78;21191;-53
2021/07/01 11:04:08;;;;;;;5.58;3.75;;;;;;;29.03;42.59;98779.31;1746765;80;21623;-53
2021/07/01 11:06:36;;;;;;;15.35;3.70;;;;;;;29.02;42.59;98783.07;1750266;80;21109;-48
2021/07/01 11:09:09;;;;;;;5.62;3.22;;;;;;;29.01;42.46;98785.44;1758251;80;21594;-50
2021/07/01 11:11:39;;;;;;;7.50;3.12;;;;;;;28.96;42.35;98783.30;1750668;79;21062;-50
2021/07/01 11:14:09;;;;;;;4.90;2.92;;;;;;;28.94;42.32;98780.47;1744097;80;21144;-49
2021/07/01 11:16:43;;;;;;;3.45;2.40;;;;;;;28.91;42.29;98774.91;1761065;79;21146;-49
2021/07/01 11:19:17;;;;;;;3.87;2.87;;;;;;;28.90;42.40;98777.30;1771967;78;21027;-49
2021/07/01 11:21:52;;;;;;;6.12;2.83;;;;;;;28.89;42.40;98775.61;1773014;78;21042;-51
2021/07/01 11:24:24;;;;;;;7.58;2.50;;;;;;;28.87;42.45;98785.80;1781056;78;21022;-48
2021/07/01 11:26:57;;;;;;;10.98;2.95;;;;;;;28.83;42.49;98782.64;1785006;78;21325;-50
2021/07/01 11:29:45;;;;;;;7.47;2.90;;;;;;;28.79;42.45;98782.67;1759322;77;20982;-42
2021/07/01 11:32:22;;;;;;;9.73;2.65;;;;;;;28.74;42.49;98785.11;1803112;77;20996;-41
2021/07/01 11:34:50;;;;;;;4.10;2.47;;;;;;;28.69;42.59;98779.42;1785239;77;21037;-40
2021/07/01 11:37:42;;;;;;;5.85;2.37;;;;;;;28.66;42.56;98785.20;1785961;78;20955;-41
2021/07/01 11:40:13;;;;;;;5.58;2.45;;;;;;;28.66;42.50;98777.08;1801003;77;21787;-43
2021/07/01 11:42:40;;;;;;;5.37;2.50;;;;;;;28.69;42.53;98784.83;1799229;77;20992;-41
2021/07/01 11:45:10;;;;;;;7.50;2.95;;;;;;;28.71;42.52;98782.77;1766135;78;20990;-41
2021/07/01 11:47:36;;;;;;;9.08;2.98;;;;;;;28.74;42.51;98781.05;1781021;77;21011;-46
2021/07/01 11:50:04;;;;;;;7.53;2.45;;;;;;;28.72;42.49;98783.11;1813698;77;21002;-43